createdAt,value
2019-02-14T00:00:15.424Z,82.67
2019-02-14T00:01:15.416Z,82.91
2019-02-14T00:02:15.407Z,82.67
2019-02-14T00:03:15.396Z,83.29
2019-02-14T00:04:15.450Z,82.81
2019-02-14T00:05:16.736Z,84.14
2019-02-14T00:06:15.368Z,85.22
2019-02-14T00:07:15.347Z,85.53
2019-02-14T00:08:15.345Z,86.58
2019-02-14T00:09:15.344Z,86.20
2019-02-14T00:10:15.320Z,86.10
2019-02-14T00:11:15.360Z,87.04
2019-02-14T00:12:15.293Z,86.41
2019-02-14T00:13:15.287Z,86.37
2019-02-14T00:14:15.293Z,86.47
2019-02-14T00:15:15.263Z,85.91
2019-02-14T00:16:15.248Z,86.29
2019-02-14T00:17:15.292Z,84.58
2019-02-14T00:18:15.231Z,84.27
2019-02-14T00:19:15.246Z,83.50
2019-02-14T00:20:15.203Z,82.46
2019-02-14T00:21:15.192Z,81.06
2019-02-14T00:22:15.185Z,80.58
2019-02-14T00:23:15.208Z,81.21
2019-02-14T00:24:15.184Z,82.53
2019-02-14T00:25:15.155Z,82.28
2019-02-14T00:26:15.138Z,82.28
2019-02-14T00:27:15.130Z,81.41
2019-02-14T00:28:15.112Z,81.62
2019-02-14T00:29:15.156Z,81.09
2019-02-14T00:30:15.096Z,80.54
2019-02-14T00:31:15.084Z,78.87
2019-02-14T00:32:15.078Z,78.91
2019-02-14T00:33:15.059Z,79.43
2019-02-14T00:34:15.070Z,79.25
2019-02-14T00:35:15.039Z,79.77
2019-02-14T00:36:15.066Z,80.19
2019-02-14T00:37:15.021Z,80.51
2019-02-14T00:38:15.008Z,80.92
2019-02-14T00:39:15.014Z,82.07
2019-02-14T00:40:14.982Z,81.41
2019-02-14T00:41:14.968Z,79.39
2019-02-14T00:42:15.008Z,79.18
2019-02-14T00:43:14.956Z,79.46
2019-02-14T00:44:14.959Z,78.63
2019-02-14T00:45:14.931Z,78.63
2019-02-14T00:46:14.912Z,78.52
2019-02-14T00:47:14.904Z,78.90
2019-02-14T00:48:14.891Z,77.61
2019-02-14T00:49:14.907Z,78.73
2019-02-14T00:50:14.927Z,78.63
2019-02-14T00:51:14.861Z,79.25
2019-02-14T00:52:14.846Z,79.18
2019-02-14T00:53:14.840Z,79.18
2019-02-14T00:54:14.850Z,78.97
2019-02-14T00:55:14.819Z,78.31
2019-02-14T00:56:14.804Z,80.02
2019-02-14T00:57:14.792Z,81.93
2019-02-14T00:58:14.825Z,82.70
2019-02-14T00:59:14.796Z,82.91
2019-02-14T01:00:14.762Z,82.50
2019-02-14T01:01:14.756Z,82.91
2019-02-14T01:02:14.740Z,82.35
2019-02-14T01:03:14.729Z,82.42
2019-02-14T01:04:14.736Z,81.82
2019-02-14T01:05:16.379Z,80.50
2019-02-14T01:06:14.696Z,79.35
2019-02-14T01:07:14.678Z,78.52
2019-02-14T01:08:14.669Z,78.94
2019-02-14T01:09:14.656Z,78.34
2019-02-14T01:10:14.674Z,79.22
2019-02-14T01:11:14.636Z,79.32
2019-02-14T01:12:14.679Z,80.68
2019-02-14T01:13:14.615Z,80.47
2019-02-14T01:14:14.606Z,79.98
2019-02-14T01:15:14.617Z,80.36
2019-02-14T01:16:14.631Z,79.01
2019-02-14T01:17:14.569Z,79.15
2019-02-14T01:18:14.562Z,79.95
2019-02-14T01:19:15.501Z,82.36
2019-02-14T01:20:14.617Z,84.17
2019-02-14T01:21:14.523Z,85.60
2019-02-14T01:22:14.519Z,86.46
2019-02-14T01:23:14.505Z,83.44
2019-02-14T01:24:14.488Z,82.64
2019-02-14T01:25:14.501Z,83.37
2019-02-14T01:26:14.511Z,84.58
2019-02-14T01:27:14.458Z,86.32
2019-02-14T01:28:14.449Z,83.59
2019-02-14T01:29:14.438Z,80.05
2019-02-14T01:30:14.444Z,79.08
2019-02-14T01:31:14.414Z,80.93
2019-02-14T01:32:14.425Z,82.74
2019-02-14T01:33:14.395Z,84.14
2019-02-14T01:34:14.382Z,84.80
2019-02-14T01:35:14.392Z,85.64
2019-02-14T01:36:14.355Z,86.69
2019-02-14T01:37:14.346Z,86.06
2019-02-14T01:38:14.380Z,86.06
2019-02-14T01:39:14.325Z,84.80
2019-02-14T01:40:14.338Z,84.74
2019-02-14T01:41:14.301Z,84.63
2019-02-14T01:42:14.295Z,84.91
2019-02-14T01:43:14.293Z,84.22
2019-02-14T01:44:14.299Z,85.05
2019-02-14T01:45:14.280Z,84.53
2019-02-14T01:46:14.245Z,84.39
2019-02-14T01:47:14.233Z,84.39
2019-02-14T01:48:14.227Z,84.17
2019-02-14T01:49:14.214Z,85.05
2019-02-14T01:50:14.264Z,85.05
2019-02-14T01:51:14.195Z,85.58
2019-02-14T01:52:14.180Z,86.24
2019-02-14T01:53:14.173Z,86.04
2019-02-14T01:54:14.159Z,85.93
2019-02-14T01:55:14.171Z,85.97
2019-02-14T01:56:14.169Z,86.66
2019-02-14T01:57:14.122Z,85.93
2019-02-14T01:58:14.114Z,86.62
2019-02-14T01:59:14.105Z,86.20
2019-02-14T02:00:14.114Z,86.47
2019-02-14T02:01:14.092Z,86.02
2019-02-14T02:02:14.117Z,86.15
2019-02-14T02:03:14.061Z,84.50
2019-02-14T02:04:14.052Z,80.85
2019-02-14T02:05:14.060Z,80.05
2019-02-14T02:06:14.027Z,80.90
2019-02-14T02:07:14.020Z,82.50
2019-02-14T02:08:14.003Z,83.48
2019-02-14T02:09:14.038Z,85.09
2019-02-14T02:10:14.008Z,86.38
2019-02-14T02:11:13.970Z,86.60
2019-02-14T02:12:13.962Z,86.91
2019-02-14T02:13:13.946Z,87.37
2019-02-14T02:14:13.943Z,88.10
2019-02-14T02:15:13.952Z,87.79
2019-02-14T02:16:13.964Z,88.42
2019-02-14T02:17:13.904Z,88.37
2019-02-14T02:18:13.892Z,88.27
2019-02-14T02:19:13.883Z,87.85
2019-02-14T02:20:13.892Z,86.80
2019-02-14T02:21:13.860Z,86.18
2019-02-14T02:22:13.897Z,86.07
2019-02-14T02:23:13.840Z,85.61
2019-02-14T02:24:13.826Z,84.95
2019-02-14T02:25:13.838Z,84.32
2019-02-14T02:26:13.801Z,83.90
2019-02-14T02:27:13.795Z,83.59
2019-02-14T02:28:13.816Z,83.48
2019-02-14T02:29:13.769Z,83.48
2019-02-14T02:30:13.815Z,84.36
2019-02-14T02:31:13.750Z,84.56
2019-02-14T02:32:13.741Z,84.67
2019-02-14T02:33:13.727Z,84.25
2019-02-14T02:34:13.749Z,83.48
2019-02-14T02:35:13.737Z,83.80
2019-02-14T02:36:13.695Z,82.75
2019-02-14T02:37:13.681Z,83.62
2019-02-14T02:38:13.675Z,84.56
2019-02-14T02:39:13.659Z,84.99
2019-02-14T02:40:13.672Z,84.36
2019-02-14T02:41:13.668Z,84.46
2019-02-14T02:42:13.627Z,84.25
2019-02-14T02:43:13.617Z,84.36
2019-02-14T02:44:13.610Z,84.36
2019-02-14T02:45:13.634Z,84.61
2019-02-14T02:46:13.580Z,85.24
2019-02-14T02:47:13.611Z,85.65
2019-02-14T02:48:13.589Z,86.49
2019-02-14T02:49:13.554Z,86.07
2019-02-14T02:50:13.545Z,86.80
2019-02-14T02:51:13.555Z,86.38
2019-02-14T02:52:13.513Z,85.97
2019-02-14T02:53:13.559Z,85.65
2019-02-14T02:54:13.494Z,88.42
2019-02-14T02:55:13.486Z,85.55
2019-02-14T02:56:13.491Z,81.38
2019-02-14T02:57:13.469Z,79.29
2019-02-14T02:58:13.450Z,79.19
2019-02-14T02:59:14.264Z,81.04
2019-02-14T03:00:13.469Z,83.10
2019-02-14T03:01:13.436Z,84.19
2019-02-14T03:02:13.408Z,85.80
2019-02-14T03:03:13.395Z,86.74
2019-02-14T03:04:13.384Z,86.95
2019-02-14T03:05:13.377Z,86.68
2019-02-14T03:06:13.432Z,87.83
2019-02-14T03:07:13.350Z,87.79
2019-02-14T03:08:13.339Z,87.74
2019-02-14T03:09:13.332Z,86.74
2019-02-14T03:10:13.315Z,86.95
2019-02-14T03:11:13.329Z,86.74
2019-02-14T03:12:13.337Z,88.48
2019-02-14T03:13:13.290Z,88.27
2019-02-14T03:14:13.273Z,86.70
2019-02-14T03:15:13.261Z,86.32
2019-02-14T03:16:13.276Z,87.16
2019-02-14T03:17:13.242Z,88.17
2019-02-14T03:18:13.258Z,87.01
2019-02-14T03:19:13.221Z,86.87
2019-02-14T03:20:13.208Z,86.52
2019-02-14T03:21:13.224Z,86.27
2019-02-14T03:22:13.230Z,85.71
2019-02-14T03:23:13.170Z,84.66
2019-02-14T03:24:13.168Z,82.67
2019-02-14T03:25:13.181Z,81.25
2019-02-14T03:26:13.172Z,82.43
2019-02-14T03:27:13.130Z,84.39
2019-02-14T03:28:13.124Z,86.72
2019-02-14T03:29:13.108Z,86.02
2019-02-14T03:30:13.100Z,84.34
2019-02-14T03:31:13.111Z,82.99
2019-02-14T03:32:13.079Z,82.78
2019-02-14T03:33:13.061Z,82.67
2019-02-14T03:34:13.089Z,83.09
2019-02-14T03:35:13.041Z,82.89
2019-02-14T03:36:18.886Z,82.57
2019-02-14T03:37:14.018Z,82.99
2019-02-14T03:38:13.006Z,82.78
2019-02-14T03:39:12.999Z,82.15
2019-02-14T03:40:13.021Z,81.90
2019-02-14T03:41:12.992Z,81.24
2019-02-14T03:42:12.963Z,79.64
2019-02-14T03:43:12.948Z,80.55
2019-02-14T03:44:12.940Z,82.58
2019-02-14T03:45:12.931Z,84.78
2019-02-14T03:46:12.989Z,83.87
2019-02-14T03:47:12.906Z,84.39
2019-02-14T03:48:12.897Z,85.34
2019-02-14T03:49:12.884Z,85.27
2019-02-14T03:50:12.871Z,86.15
2019-02-14T03:51:12.883Z,86.57
2019-02-14T03:52:12.892Z,86.88
2019-02-14T03:53:12.840Z,87.09
2019-02-14T03:54:12.829Z,87.99
2019-02-14T03:55:12.820Z,87.89
2019-02-14T03:56:12.827Z,88.59
2019-02-14T03:57:12.793Z,88.21
2019-02-14T03:58:12.836Z,84.27
2019-02-14T03:59:12.775Z,81.87
2019-02-14T04:00:12.762Z,81.00
2019-02-14T04:01:12.775Z,81.39
2019-02-14T04:02:12.743Z,83.48
2019-02-14T04:03:12.727Z,84.53
2019-02-14T04:04:12.767Z,83.52
2019-02-14T04:05:12.706Z,83.56
2019-02-14T04:06:12.723Z,84.71
2019-02-14T04:07:12.682Z,85.90
2019-02-14T04:08:12.682Z,86.43
2019-02-14T04:09:12.664Z,86.85
2019-02-14T04:10:12.655Z,86.74
2019-02-14T04:11:12.720Z,86.85
2019-02-14T04:12:12.628Z,87.16
2019-02-14T04:13:12.623Z,88.14
2019-02-14T04:14:12.647Z,87.41
2019-02-14T04:15:12.593Z,86.99
2019-02-14T04:16:12.614Z,86.32
2019-02-14T04:17:12.613Z,86.53
2019-02-14T04:18:12.565Z,86.22
2019-02-14T04:19:12.561Z,86.32
2019-02-14T04:20:12.542Z,86.05
2019-02-14T04:21:12.549Z,86.78
2019-02-14T04:22:12.519Z,86.25
2019-02-14T04:23:12.541Z,87.09
2019-02-14T04:24:12.494Z,86.63
2019-02-14T04:25:12.484Z,86.00
2019-02-14T04:26:12.494Z,85.42
2019-02-14T04:27:12.460Z,85.10
2019-02-14T04:28:12.454Z,85.27
2019-02-14T04:29:12.481Z,85.13
2019-02-14T04:30:12.432Z,82.93
2019-02-14T04:31:12.451Z,82.82
2019-02-14T04:32:12.408Z,82.62
2019-02-14T04:33:12.395Z,82.82
2019-02-14T04:34:12.382Z,84.22
2019-02-14T04:35:12.447Z,84.08
2019-02-14T04:36:12.367Z,84.79
2019-02-14T04:37:12.376Z,85.35
2019-02-14T04:38:12.340Z,86.05
2019-02-14T04:39:12.330Z,85.73
2019-02-14T04:40:12.319Z,85.42
2019-02-14T04:41:12.347Z,86.05
2019-02-14T04:42:12.322Z,85.77
2019-02-14T04:43:12.284Z,85.98
2019-02-14T04:44:12.277Z,86.15
2019-02-14T04:45:12.267Z,85.38
2019-02-14T04:46:12.254Z,84.33
2019-02-14T04:47:12.295Z,83.07
2019-02-14T04:48:12.232Z,83.91
2019-02-14T04:49:12.219Z,84.54
2019-02-14T04:50:12.206Z,84.83
2019-02-14T04:51:12.197Z,84.93
2019-02-14T04:52:12.209Z,86.36
2019-02-14T04:53:12.218Z,85.10
2019-02-14T04:54:12.169Z,85.25
2019-02-14T04:55:12.150Z,85.66
2019-02-14T04:56:12.141Z,86.71
2019-02-14T04:57:12.153Z,86.61
2019-02-14T04:58:12.118Z,86.61
2019-02-14T04:59:12.142Z,86.29
2019-02-14T05:00:12.099Z,86.51
2019-02-14T05:01:12.088Z,87.07
2019-02-14T05:02:12.099Z,87.28
2019-02-14T05:03:12.063Z,86.96
2019-02-14T05:04:12.054Z,87.07
2019-02-14T05:05:12.085Z,86.76
2019-02-14T05:06:12.031Z,87.28
2019-02-14T05:07:12.045Z,87.49
2019-02-14T05:08:12.012Z,88.05
2019-02-14T05:09:12.006Z,87.95
2019-02-14T05:10:11.993Z,88.57
2019-02-14T05:11:12.020Z,88.47
2019-02-14T05:12:11.985Z,89.00
2019-02-14T05:13:11.954Z,89.21
2019-02-14T05:14:11.944Z,88.68
2019-02-14T05:15:11.935Z,88.96
2019-02-14T05:16:11.920Z,88.57
2019-02-14T05:17:11.985Z,88.79
2019-02-14T05:18:11.897Z,88.79
2019-02-14T05:19:11.886Z,89.31
2019-02-14T05:20:11.875Z,89.31
2019-02-14T05:21:11.866Z,89.00
2019-02-14T05:22:11.873Z,88.32
2019-02-14T05:23:11.878Z,87.17
2019-02-14T05:24:11.832Z,86.44
2019-02-14T05:25:11.822Z,86.71
2019-02-14T05:26:11.807Z,86.82
2019-02-14T05:27:11.820Z,86.82
2019-02-14T05:28:11.788Z,87.97
2019-02-14T05:29:11.823Z,86.44
2019-02-14T05:30:11.778Z,86.23
2019-02-14T05:31:11.755Z,86.12
2019-02-14T05:32:11.774Z,86.19
2019-02-14T05:33:11.734Z,86.29
2019-02-14T05:34:11.730Z,85.81
2019-02-14T05:35:11.709Z,86.08
2019-02-14T05:36:11.742Z,87.34
2019-02-14T05:37:11.714Z,87.24
2019-02-14T05:38:11.679Z,86.40
2019-02-14T05:39:11.665Z,86.23
2019-02-14T05:40:11.655Z,86.86
2019-02-14T05:41:11.641Z,86.90
2019-02-14T05:42:11.684Z,88.22
2019-02-14T05:43:11.619Z,88.47
2019-02-14T05:44:11.607Z,88.47
2019-02-14T05:45:11.599Z,88.79
2019-02-14T05:46:11.589Z,90.17
2019-02-14T05:47:11.598Z,88.81
2019-02-14T05:48:11.603Z,88.21
2019-02-14T05:49:11.553Z,85.97
2019-02-14T05:50:11.542Z,84.50
2019-02-14T05:51:11.534Z,84.08
2019-02-14T05:52:11.541Z,83.28
2019-02-14T05:53:11.508Z,83.11
2019-02-14T05:54:11.543Z,84.37
2019-02-14T05:55:11.487Z,84.83
2019-02-14T05:56:11.476Z,85.35
2019-02-14T05:57:11.487Z,85.98
2019-02-14T05:58:11.459Z,85.83
2019-02-14T05:59:11.439Z,85.27
2019-02-14T06:00:11.475Z,84.33
2019-02-14T06:01:11.420Z,84.81
2019-02-14T06:02:11.434Z,84.14
2019-02-14T06:03:11.398Z,80.83
2019-02-14T06:04:11.384Z,80.62
2019-02-14T06:05:11.375Z,80.76
2019-02-14T06:06:11.403Z,80.37
2019-02-14T06:07:11.378Z,77.34
2019-02-14T06:08:11.345Z,75.60
2019-02-14T06:09:11.327Z,78.88
2019-02-14T06:10:11.370Z,79.22
2019-02-14T06:11:11.311Z,78.91
2019-02-14T06:12:11.360Z,79.40
2019-02-14T06:13:11.284Z,81.18
2019-02-14T06:14:11.276Z,80.35
2019-02-14T06:15:11.264Z,81.29
2019-02-14T06:16:11.254Z,80.76
2019-02-14T06:17:11.267Z,81.46
2019-02-14T06:18:11.289Z,80.97
2019-02-14T06:19:11.222Z,81.11
2019-02-14T06:20:11.214Z,80.76
2019-02-14T06:21:11.197Z,78.04
2019-02-14T06:22:11.192Z,78.18
2019-02-14T06:23:11.194Z,77.97
2019-02-14T06:24:18.196Z,79.54
2019-02-14T06:25:11.158Z,78.91
2019-02-14T06:26:18.173Z,79.19
2019-02-14T06:27:11.130Z,79.09
2019-02-14T06:28:11.140Z,80.27
2019-02-14T06:29:11.107Z,80.52
2019-02-14T06:30:11.141Z,81.46
2019-02-14T06:31:11.090Z,83.13
2019-02-14T06:32:11.077Z,80.16
2019-02-14T06:33:11.085Z,80.06
2019-02-14T06:34:11.093Z,79.71
2019-02-14T06:35:11.045Z,79.15
2019-02-14T06:36:11.109Z,78.14
2019-02-14T06:37:11.023Z,78.35
2019-02-14T06:38:11.042Z,77.97
2019-02-14T06:39:11.000Z,78.42
2019-02-14T06:40:11.014Z,78.15
2019-02-14T06:41:10.980Z,79.13
2019-02-14T06:42:10.963Z,79.13
2019-02-14T06:43:10.986Z,79.23
2019-02-14T06:44:10.943Z,79.16
2019-02-14T06:45:10.936Z,79.58
2019-02-14T06:46:10.967Z,79.72
2019-02-14T06:47:10.912Z,80.98
2019-02-14T06:48:10.916Z,82.02
2019-02-14T06:49:10.885Z,80.10
2019-02-14T06:50:10.879Z,78.22
2019-02-14T06:51:10.864Z,76.68
2019-02-14T06:52:10.889Z,77.83
2019-02-14T06:53:10.865Z,79.13
2019-02-14T06:54:10.836Z,79.23
2019-02-14T06:55:10.828Z,79.90
2019-02-14T06:56:10.809Z,80.24
2019-02-14T06:57:10.799Z,81.64
2019-02-14T06:58:12.819Z,81.47
2019-02-14T06:59:10.778Z,82.20
2019-02-14T07:00:10.765Z,82.94
2019-02-14T07:01:10.758Z,83.61
2019-02-14T07:02:10.743Z,83.81
2019-02-14T07:03:10.754Z,83.96
2019-02-14T07:04:10.776Z,83.81
2019-02-14T07:05:10.713Z,83.29
2019-02-14T07:06:10.704Z,82.42
2019-02-14T07:07:18.406Z,81.89
2019-02-14T07:08:11.695Z,82.42
2019-02-14T07:09:10.663Z,82.66
2019-02-14T07:10:10.708Z,82.76
2019-02-14T07:11:10.647Z,82.24
2019-02-14T07:12:10.633Z,81.89
2019-02-14T07:13:10.686Z,81.99
2019-02-14T07:14:10.611Z,82.10
2019-02-14T07:15:10.599Z,82.83
2019-02-14T07:16:10.619Z,83.08
2019-02-14T07:17:10.577Z,83.71
2019-02-14T07:18:10.588Z,83.61
2019-02-14T07:19:10.598Z,83.36
2019-02-14T07:20:10.539Z,82.94
2019-02-14T07:21:10.565Z,83.50
2019-02-14T07:22:10.519Z,82.94
2019-02-14T07:23:10.533Z,82.73
2019-02-14T07:24:10.524Z,81.89
2019-02-14T07:25:10.494Z,81.37
2019-02-14T07:26:10.475Z,81.68
2019-02-14T07:27:10.465Z,80.91
2019-02-14T07:28:10.486Z,80.46
2019-02-14T07:29:10.446Z,81.23
2019-02-14T07:30:10.460Z,82.52
2019-02-14T07:31:10.423Z,82.83
2019-02-14T07:32:10.407Z,82.59
2019-02-14T07:33:10.421Z,82.97
2019-02-14T07:34:10.387Z,82.40
2019-02-14T07:35:10.380Z,82.62
2019-02-14T07:36:10.453Z,81.39
2019-02-14T07:37:10.363Z,79.93
2019-02-14T07:38:10.372Z,80.76
2019-02-14T07:39:11.128Z,81.60
2019-02-14T07:40:10.331Z,81.46
2019-02-14T07:41:10.312Z,80.16
2019-02-14T07:42:10.322Z,79.64
2019-02-14T07:43:10.313Z,79.40
2019-02-14T07:44:10.283Z,79.64
2019-02-14T07:45:10.267Z,79.54
2019-02-14T07:46:10.260Z,79.92
2019-02-14T07:47:10.242Z,79.99
2019-02-14T07:48:10.255Z,79.29
2019-02-14T07:49:10.267Z,78.77
2019-02-14T07:50:10.221Z,79.36
2019-02-14T07:51:10.199Z,78.84
2019-02-14T07:52:10.188Z,78.00
2019-02-14T07:53:10.216Z,79.11
2019-02-14T07:54:10.166Z,79.22
2019-02-14T07:55:10.242Z,76.57
2019-02-14T07:56:10.145Z,76.92
2019-02-14T07:57:10.132Z,74.95
2019-02-14T07:58:10.152Z,74.74
2019-02-14T07:59:10.116Z,73.80
2019-02-14T08:00:10.140Z,74.39
2019-02-14T08:01:10.087Z,74.01
2019-02-14T08:02:10.074Z,73.35
2019-02-14T08:03:10.068Z,74.42
2019-02-14T08:04:10.081Z,75.64
2019-02-14T08:05:10.048Z,73.94
2019-02-14T08:06:10.062Z,73.10
2019-02-14T08:07:10.019Z,72.06
2019-02-14T08:08:10.008Z,73.32
2019-02-14T08:09:10.043Z,73.83
2019-02-14T08:10:10.001Z,72.45
2019-02-14T08:11:09.977Z,72.45
2019-02-14T08:12:09.963Z,71.41
2019-02-14T08:13:09.955Z,71.09
2019-02-14T08:14:10.007Z,71.79
2019-02-14T08:15:09.940Z,71.48
2019-02-14T08:16:09.929Z,70.85
2019-02-14T08:17:09.909Z,71.34
2019-02-14T08:18:09.895Z,71.13
2019-02-14T08:19:09.906Z,69.99
2019-02-14T08:20:09.904Z,69.12
2019-02-14T08:21:09.864Z,69.82
2019-02-14T08:22:09.855Z,67.46
2019-02-14T08:23:09.842Z,68.40
2019-02-14T08:24:09.849Z,68.63
2019-02-14T08:25:09.825Z,69.74
2019-02-14T08:26:11.096Z,67.46
2019-02-14T08:27:09.797Z,68.08
2019-02-14T08:28:09.784Z,68.40
2019-02-14T08:29:09.801Z,68.50
2019-02-14T08:30:09.765Z,69.85
2019-02-14T08:31:09.754Z,69.30
2019-02-14T08:32:09.782Z,69.37
2019-02-14T08:33:09.730Z,67.19
2019-02-14T08:34:09.749Z,66.57
2019-02-14T08:35:09.709Z,67.61
2019-02-14T08:36:09.706Z,67.92
2019-02-14T08:37:09.684Z,67.16
2019-02-14T08:38:09.675Z,67.71
2019-02-14T08:39:09.756Z,68.51
2019-02-14T08:40:09.663Z,67.96
2019-02-14T08:41:09.642Z,67.41
2019-02-14T08:42:09.650Z,65.34
2019-02-14T08:43:09.616Z,65.20
2019-02-14T08:44:09.639Z,64.17
2019-02-14T08:45:09.601Z,65.00
2019-02-14T08:46:09.670Z,65.10
2019-02-14T08:47:09.605Z,63.65
2019-02-14T08:48:09.560Z,63.02
2019-02-14T08:49:09.594Z,63.13
2019-02-14T08:50:09.540Z,64.37
2019-02-14T08:51:09.562Z,64.48
2019-02-14T08:52:09.517Z,63.65
2019-02-14T08:53:09.562Z,63.34
2019-02-14T08:54:09.516Z,62.82
2019-02-14T08:55:10.183Z,62.92
2019-02-14T08:56:09.507Z,63.51
2019-02-14T08:57:09.461Z,62.55
2019-02-14T08:58:09.475Z,64.32
2019-02-14T08:59:09.460Z,61.15
2019-02-14T09:00:09.427Z,60.30
2019-02-14T09:01:09.454Z,61.43
2019-02-14T09:02:09.408Z,60.91
2019-02-14T09:03:09.393Z,61.54
2019-02-14T09:04:09.441Z,60.09
2019-02-14T09:05:09.381Z,60.94
2019-02-14T09:06:09.364Z,61.15
2019-02-14T09:07:11.234Z,61.46
2019-02-14T09:08:09.344Z,61.46
2019-02-14T09:09:09.389Z,60.01
2019-02-14T09:10:09.318Z,61.25
2019-02-14T09:11:09.306Z,60.42
2019-02-14T09:12:09.299Z,61.15
2019-02-14T09:13:16.940Z,62.67
2019-02-14T09:14:10.323Z,61.38
2019-02-14T09:15:09.261Z,59.72
2019-02-14T09:16:09.251Z,58.07
2019-02-14T09:17:09.309Z,60.73
2019-02-14T09:18:09.236Z,59.67
2019-02-14T09:19:09.241Z,58.84
2019-02-14T09:20:09.250Z,58.64
2019-02-14T09:21:09.197Z,59.46
2019-02-14T09:22:09.193Z,58.01
2019-02-14T09:23:09.176Z,58.94
2019-02-14T09:24:09.189Z,57.84
2019-02-14T09:25:09.183Z,59.59
2019-02-14T09:26:09.141Z,58.64
2019-02-14T09:27:09.133Z,58.22
2019-02-14T09:28:09.117Z,57.84
2019-02-14T09:29:09.134Z,60.39
2019-02-14T09:30:09.104Z,58.64
2019-02-14T09:31:09.116Z,59.98
2019-02-14T09:32:09.074Z,58.01
2019-02-14T09:33:09.063Z,58.33
2019-02-14T09:34:09.107Z,57.94
2019-02-14T09:35:09.042Z,59.25
2019-02-14T09:36:09.034Z,57.81
2019-02-14T09:37:09.053Z,58.76
2019-02-14T09:38:09.009Z,60.18
2019-02-14T09:39:09.019Z,60.36
2019-02-14T09:40:08.983Z,58.06
2019-02-14T09:41:08.977Z,57.76
2019-02-14T09:42:08.986Z,59.20
2019-02-14T09:43:08.986Z,57.93
2019-02-14T09:44:08.962Z,55.77
2019-02-14T09:45:08.951Z,56.39
2019-02-14T09:46:08.948Z,55.98
2019-02-14T09:47:08.927Z,55.98
2019-02-14T09:48:08.944Z,55.87
2019-02-14T09:49:08.985Z,56.18
2019-02-14T09:50:08.908Z,57.62
2019-02-14T09:51:08.862Z,55.46
2019-02-14T09:52:08.852Z,53.71
2019-02-14T09:53:08.994Z,53.91
2019-02-14T09:54:08.841Z,53.58
2019-02-14T09:55:08.966Z,53.89
2019-02-14T09:56:08.812Z,53.38
2019-02-14T09:57:08.808Z,55.62
2019-02-14T09:58:08.794Z,54.38
2019-02-14T09:59:08.852Z,53.22
2019-02-14T10:00:08.786Z,52.09
2019-02-14T10:01:08.746Z,52.29
2019-02-14T10:02:08.761Z,55.69
2019-02-14T10:03:08.726Z,52.97
2019-02-14T10:04:08.753Z,52.76
2019-02-14T10:05:08.732Z,53.48
2019-02-14T10:06:08.693Z,50.48
2019-02-14T10:07:08.691Z,52.66
2019-02-14T10:08:12.939Z,52.84
2019-02-14T10:09:08.759Z,52.94
2019-02-14T10:10:08.784Z,51.09
2019-02-14T10:11:08.632Z,52.94
2019-02-14T10:12:08.849Z,53.15
2019-02-14T10:13:08.609Z,54.28
2019-02-14T10:14:08.611Z,55.72
2019-02-14T10:15:08.614Z,53.56
2019-02-14T10:16:08.781Z,53.15
2019-02-14T10:17:08.578Z,52.84
2019-02-14T10:18:08.556Z,55.41
2019-02-14T10:19:08.540Z,54.56
2019-02-14T10:20:08.596Z,54.77
2019-02-14T10:21:08.520Z,53.33
2019-02-14T10:22:08.509Z,54.69
2019-02-14T10:23:08.543Z,53.72
2019-02-14T10:24:08.497Z,52.89
2019-02-14T10:25:08.497Z,54.64
2019-02-14T10:26:08.463Z,54.43
2019-02-14T10:27:08.465Z,52.76
2019-02-14T10:28:08.436Z,53.28
2019-02-14T10:29:08.425Z,54.00
2019-02-14T10:30:08.498Z,52.56
2019-02-14T10:31:08.408Z,52.12
2019-02-14T10:32:08.401Z,52.36
2019-02-14T10:33:08.406Z,52.76
2019-02-14T10:34:08.476Z,53.79
2019-02-14T10:35:08.380Z,51.95
2019-02-14T10:36:08.356Z,51.95
2019-02-14T10:37:08.381Z,50.30
2019-02-14T10:38:08.338Z,51.02
2019-02-14T10:39:08.312Z,50.61
2019-02-14T10:40:08.324Z,51.84
2019-02-14T10:41:08.328Z,52.36
2019-02-14T10:42:08.290Z,53.17
2019-02-14T10:43:08.269Z,53.05
2019-02-14T10:44:08.298Z,53.54
2019-02-14T10:45:08.264Z,55.87
2019-02-14T10:46:08.243Z,53.18
2019-02-14T10:47:08.225Z,51.03
2019-02-14T10:48:08.213Z,49.69
2019-02-14T10:49:08.394Z,52.05
2019-02-14T10:50:08.210Z,50.42
2019-02-14T10:51:08.206Z,50.72
2019-02-14T10:52:08.165Z,49.06
2019-02-14T10:53:08.156Z,50.62
2019-02-14T10:54:08.182Z,48.16
2019-02-14T10:55:08.151Z,48.24
2019-02-14T10:56:08.119Z,48.14
2019-02-14T10:57:08.111Z,47.01
2019-02-14T10:58:08.096Z,43.51
2019-02-14T10:59:08.122Z,44.20
2019-02-14T11:00:08.122Z,44.41
2019-02-14T11:01:08.062Z,44.00
2019-02-14T11:02:08.052Z,44.31
2019-02-14T11:03:08.071Z,42.55
2019-02-14T11:04:08.031Z,42.44
2019-02-14T11:05:08.840Z,41.73
2019-02-14T11:06:08.108Z,40.83
2019-02-14T11:07:08.010Z,40.60
2019-02-14T11:08:08.030Z,43.47
2019-02-14T11:09:08.039Z,39.89
2019-02-14T11:10:08.124Z,45.31
2019-02-14T11:11:08.470Z,41.52
2019-02-14T11:12:08.045Z,40.99
2019-02-14T11:13:07.930Z,38.76
2019-02-14T11:14:07.919Z,38.15
2019-02-14T11:15:09.097Z,43.14
2019-02-14T11:16:09.690Z,36.82
2019-02-14T11:17:07.882Z,41.61
2019-02-14T11:18:07.897Z,45.25
2019-02-14T11:19:07.864Z,38.11
2019-02-14T11:20:07.897Z,39.64
2019-02-14T11:21:07.859Z,42.69
2019-02-14T11:22:07.831Z,39.83
2019-02-14T11:23:07.848Z,37.07
2019-02-14T11:24:07.803Z,37.59
2019-02-14T11:25:07.799Z,41.16
2019-02-14T11:26:08.691Z,35.34
2019-02-14T11:27:07.777Z,37.07
2019-02-14T11:28:07.758Z,38.40
2019-02-14T11:29:07.774Z,36.77
2019-02-14T11:30:07.736Z,34.83
2019-02-14T11:31:07.756Z,34.52
2019-02-14T11:32:07.714Z,33.89
2019-02-14T11:33:07.702Z,34.59
2019-02-14T11:34:07.692Z,35.71
2019-02-14T11:35:07.708Z,33.87
2019-02-14T11:36:07.704Z,31.65
2019-02-14T11:37:07.666Z,31.63
2019-02-14T11:38:07.649Z,31.73
2019-02-14T11:39:07.634Z,31.51
2019-02-14T11:40:07.625Z,31.10
2019-02-14T11:41:07.658Z,31.21
2019-02-14T11:42:07.626Z,29.97
2019-02-14T11:43:07.595Z,31.09
2019-02-14T11:44:07.585Z,31.79
2019-02-14T11:45:07.569Z,31.20
2019-02-14T11:46:07.581Z,29.56
2019-02-14T11:47:07.920Z,30.89
2019-02-14T11:48:07.533Z,31.70
2019-02-14T11:49:07.524Z,31.81
2019-02-14T11:50:07.527Z,31.89
2019-02-14T11:51:07.529Z,31.59
2019-02-14T11:52:07.488Z,31.38
2019-02-14T11:53:13.912Z,31.38
2019-02-14T11:54:08.464Z,32.08
2019-02-14T11:55:07.463Z,32.08
2019-02-14T11:56:07.466Z,31.79
2019-02-14T11:57:07.433Z,30.96
2019-02-14T11:58:07.422Z,31.77
2019-02-14T11:59:07.440Z,32.18
2019-02-14T12:00:07.401Z,31.37
2019-02-14T12:01:07.411Z,31.56
2019-02-14T12:02:07.377Z,31.46
2019-02-14T12:03:07.368Z,31.35
2019-02-14T12:04:07.353Z,30.84
2019-02-14T12:05:07.375Z,30.94
2019-02-14T12:06:07.355Z,32.88
2019-02-14T12:07:07.324Z,32.17
2019-02-14T12:08:09.395Z,32.98
2019-02-14T12:09:07.298Z,31.66
2019-02-14T12:10:13.385Z,32.57
2019-02-14T12:11:08.342Z,31.05
2019-02-14T12:12:07.265Z,30.64
2019-02-14T12:13:07.252Z,32.17
2019-02-14T12:14:07.241Z,32.68
2019-02-14T12:15:07.229Z,31.88
2019-02-14T12:16:07.241Z,31.66
2019-02-14T12:17:07.228Z,32.79
2019-02-14T12:18:07.199Z,35.75
2019-02-14T12:19:07.181Z,36.16
2019-02-14T12:20:12.404Z,38.49
2019-02-14T12:21:08.184Z,36.58
2019-02-14T12:22:07.150Z,36.79
2019-02-14T12:23:07.254Z,35.66
2019-02-14T12:24:07.131Z,36.68
2019-02-14T12:25:08.483Z,35.97
2019-02-14T12:26:07.163Z,38.31
2019-02-14T12:27:07.091Z,37.70
2019-02-14T12:28:07.104Z,40.05
2019-02-14T12:29:07.069Z,39.76
2019-02-14T12:30:07.064Z,41.08
2019-02-14T12:31:07.106Z,40.47
2019-02-14T12:32:07.037Z,40.06
2019-02-14T12:33:07.029Z,40.67
2019-02-14T12:34:07.044Z,42.41
2019-02-14T12:35:07.001Z,42.49
2019-02-14T12:36:07.013Z,42.27
2019-02-14T12:37:07.061Z,42.16
2019-02-14T12:38:06.968Z,39.19
2019-02-14T12:39:09.895Z,40.31
2019-02-14T12:40:06.945Z,40.50
2019-02-14T12:41:06.956Z,41.63
2019-02-14T12:42:06.946Z,41.84
2019-02-14T12:43:06.912Z,42.06
2019-02-14T12:44:06.900Z,42.68
2019-02-14T12:45:06.888Z,42.06
2019-02-14T12:46:06.922Z,42.88
2019-02-14T12:47:06.878Z,42.37
2019-02-14T12:48:06.857Z,42.47
2019-02-14T12:49:06.911Z,38.60
2019-02-14T12:50:06.831Z,37.05
2019-02-14T12:51:06.841Z,35.93
2019-02-14T12:52:06.812Z,37.16